If you wish to contribute or participate in the discussions about articles you are invited to join SKYbrary as a registered user

 Actions

Joinville-Lauro Carneiro de Loyola Airport

From SKYbrary Wiki

SBJV
Airport
ICAO: SBJV – IATA: JOI
Summary
Name Joinville-Lauro Carneiro de Loyola Airport
Region South America and Caribbean
Territory Brazil BR.gif
Location Joinville, Santa Catarina
Serving Joinville
Elevation 3.962 m
13 ft3.962 m
Coordinates 26° 13' 23.02" S, 48° 47' 51.00" W
Runways
Designator Length Width Surface ROPS
15/33 1640 m5,380.577 ft
45 m147.638 ft
ASP yes/yes


METAR
Observation SBJV 261300Z 00000KT 9999 FEW040 20/15 Q1019
Station JOINVILLE
Date/Time 26 May 2019 13:00:00
Wind direction
Wind speed 00 kts
Lowest cloud amount few clouds
Temperature 20°C
Dew point 15°C
Humidity 72%
QNH 1019 hPa
Weather condition n/a

Joinville-Lauro Carneiro de Loyola Airport is the airport serving Joinville, Brazil.

Climatology

Humid subtropical climate (Köppen climate classification Cfa)

Maps

Terrain

Loading map...

Airport Layout

Loading map...


Accidents & Serious Incidents at or in vicinity of SBJV

None on SKYbrary